Solon, Iowa
Current Conditions -  °F | °C
As of 7:52 AM on Saturday 22 Nov 2014 (Local Time) from KCID Reporting Station
Moderate Fog Moderate Fog  
Wind Chill: 29°   Ceiling: 100
Heat Index: 36°   Visibility: 0.06mi
Dew Point: 36°   Wind: 9mph
Humidity: 100%   Direction: 160°SSE
Pressure: 29.91"   Gusts: NA
Location:  41.81°N, 91.49°W
Report Text: KCID 221352Z 16008KT 1/16SM FG VV001 02/02 A2991 RMK AO2 SLP136 T00220022
Loading
Personal Weather Stations






























Interactive Weather Map New forecast layout! Learn more

10-Day Weather Forecast

Advertisements
Track Severe Weather on mobile